Time;durP1;ratioP1;P1;durP2;ratioP2;P2;SDS_P1;SDS_P2;PMS_P1;PMS_P2;Temp;Humidity;BMP_temperature;BMP_pressure;BME280_temperature;BME280_humidity;BME280_pressure;Samples;Min_cycle;Max_cycle;Signal;HPM_P1;HPM_P2
2022/07/20 00:00:50;;;;;;;;;;;26.00;82.50;;;;;;4997848;28;20103;-79
2022/07/20 00:03:16;;;;;;;5.47;2.47;;;25.90;82.60;;;;;;5012770;28;19917;-80
2022/07/20 00:05:42;;;;;;;;;;;25.90;82.60;;;;;;5014475;28;20037;-80
2022/07/20 00:08:08;;;;;;;6.65;2.53;;;25.80;82.70;;;;;;5030201;28;19921;-80
2022/07/20 00:13:19;;;;;;;6.32;2.60;;;25.70;82.70;;;;;;4998912;28;20052;-78
2022/07/20 00:15:45;;;;;;;5.38;3.03;;;25.70;82.70;;;;;;5013377;28;20041;-80
2022/07/20 00:18:11;;;;;;;;;;;25.60;82.60;;;;;;5013992;28;20025;-80
2022/07/20 00:20:38;;;;;;;5.22;2.42;;;25.60;82.60;;;;;;5013038;28;19925;-79
2022/07/20 00:23:04;;;;;;;5.03;2.78;;;25.60;82.60;;;;;;4996523;28;20037;-80
2022/07/20 00:25:30;;;;;;;5.43;2.65;;;25.60;82.60;;;;;;5012767;28;20064;-80
2022/07/20 00:27:56;;;;;;;;;;;25.60;82.50;;;;;;5030479;28;20041;-79
2022/07/20 00:30:21;;;;;;;8.02;2.65;;;25.50;82.50;;;;;;5012850;28;19920;-80
2022/07/20 00:32:47;;;;;;;;;;;25.50;82.50;;;;;;5013761;28;20069;-79
2022/07/20 00:35:14;;;;;;;6.32;2.78;;;25.50;82.30;;;;;;5013087;28;19975;-79
2022/07/20 00:37:40;;;;;;;4.82;2.38;;;25.40;82.40;;;;;;4996669;28;20144;-79
2022/07/20 00:40:08;;;;;;;5.53;2.47;;;25.40;82.60;;;;;;5013478;28;20466;-79
2022/07/20 00:42:34;;;;;;;6.57;2.58;;;25.40;82.50;;;;;;5012722;28;20041;-78
2022/07/20 00:45:00;;;;;;;5.78;2.67;;;25.40;82.70;;;;;;5016734;28;20045;-79
2022/07/20 00:47:25;;;;;;;;;;;25.30;82.70;;;;;;4998080;28;20052;-79
2022/07/20 00:49:51;;;;;;;7.50;2.92;;;25.30;83.10;;;;;;4996878;28;20000;-80
2022/07/20 00:52:17;;;;;;;;;;;25.20;82.70;;;;;;5013136;28;20063;-80
2022/07/20 00:54:45;;;;;;;7.20;2.50;;;25.20;83.10;;;;;;5012733;28;19921;-79
2022/07/20 00:57:12;;;;;;;3.97;2.58;;;25.10;83.10;;;;;;5013426;28;20045;-79
2022/07/20 00:59:38;;;;;;;3.25;2.53;;;25.10;83.20;;;;;;4996610;28;20057;-78
2022/07/20 01:02:03;;;;;;;;;;;25.00;83.10;;;;;;5013300;28;20046;-80
2022/07/20 01:04:29;;;;;;;3.42;2.65;;;25.00;83.50;;;;;;5014571;28;19917;-78
2022/07/20 01:06:55;;;;;;;;;;;24.90;83.40;;;;;;4999001;28;20037;-79
2022/07/20 01:09:22;;;;;;;5.55;2.40;;;24.90;84.00;;;;;;5012855;28;19967;-79
2022/07/20 01:11:47;;;;;;;7.40;2.60;;;24.90;83.60;;;;;;5012691;28;20052;-79
2022/07/20 01:14:13;;;;;;;;;;;24.80;83.70;;;;;;5013168;28;20362;-80
2022/07/20 01:16:39;;;;;;;5.50;2.72;;;24.80;84.10;;;;;;5028834;28;19968;-80
2022/07/20 01:19:06;;;;;;;7.97;2.85;;;24.70;83.70;;;;;;5012640;28;20037;-78
2022/07/20 01:21:32;;;;;;;3.63;2.53;;;24.70;83.90;;;;;;4996206;28;20037;-79
2022/07/20 01:23:58;;;;;;;6.32;2.65;;;24.70;83.90;;;;;;4996540;28;20052;-79
2022/07/20 01:26:24;;;;;;;;;;;24.60;84.00;;;;;;5012868;28;20045;-78
2022/07/20 01:28:49;;;;;;;7.68;3.10;;;24.60;84.40;;;;;;5012731;28;20285;-79
2022/07/20 01:31:15;;;;;;;;;;;24.50;84.30;;;;;;4996713;28;20042;-79
2022/07/20 01:33:41;;;;;;;7.25;3.10;;;24.40;84.50;;;;;;5013360;28;20399;-79
2022/07/20 01:36:06;;;;;;;;;;;24.40;84.50;;;;;;5017136;28;20033;-79
2022/07/20 01:38:32;;;;;;;9.98;2.55;;;24.40;85.30;;;;;;5015355;28;19917;-79
2022/07/20 01:40:58;;;;;;;4.63;2.47;;;24.30;85.20;;;;;;5015370;28;20030;-80
2022/07/20 01:43:24;;;;;;;5.97;2.70;;;24.20;85.60;;;;;;4999776;28;20040;-79
2022/07/20 01:45:49;;;;;;;5.63;2.45;;;24.10;86.20;;;;;;5016215;28;20041;-80
2022/07/20 01:48:15;;;;;;;6.80;2.60;;;24.10;86.60;;;;;;5016101;28;20111;-79
2022/07/20 01:50:41;;;;;;;;;;;24.00;86.60;;;;;;4984197;28;20041;-79
2022/07/20 01:53:08;;;;;;;5.95;2.60;;;24.00;87.30;;;;;;5016307;28;19953;-78
2022/07/20 01:55:34;;;;;;;5.50;2.60;;;23.90;86.90;;;;;;5015717;28;20095;-79
2022/07/20 01:57:59;;;;;;;5.30;2.83;;;23.90;87.00;;;;;;5016516;28;20038;-79
2022/07/20 02:00:25;;;;;;;;;;;23.80;87.30;;;;;;5016344;28;20066;-79
2022/07/20 02:02:51;;;;;;;7.57;2.88;;;23.80;87.50;;;;;;5016037;28;19917;-80
2022/07/20 02:05:18;;;;;;;7.43;2.80;;;23.70;87.20;;;;;;5015980;28;20124;-79
2022/07/20 02:07:44;;;;;;;6.50;2.72;;;23.70;87.60;;;;;;5015447;28;20041;-79
2022/07/20 02:10:12;;;;;;;5.90;3.08;;;23.70;87.50;;;;;;5015697;28;20037;-79
2022/07/20 02:12:38;;;;;;;3.85;2.40;;;23.60;87.90;;;;;;5013421;28;20038;-79
2022/07/20 02:15:07;;;;;;;6.38;2.65;;;23.60;88.00;;;;;;5015809;28;20033;-78
2022/07/20 02:17:32;;;;;;;5.82;2.70;;;23.60;88.00;;;;;;5015244;28;20037;-78
2022/07/20 02:19:58;;;;;;;;;;;23.60;88.00;;;;;;5016597;28;20466;-79
2022/07/20 02:22:24;;;;;;;5.82;3.17;;;23.50;88.20;;;;;;5015184;28;20459;-79
2022/07/20 02:24:49;;;;;;;5.32;2.67;;;23.50;88.00;;;;;;4998968;28;20113;-78
2022/07/20 02:27:15;;;;;;;7.13;2.90;;;23.50;88.50;;;;;;5015576;28;20486;-79
2022/07/20 02:29:41;;;;;;;8.98;2.85;;;23.50;88.50;;;;;;5015302;28;20504;-79
2022/07/20 02:32:07;;;;;;;6.25;3.38;;;23.40;88.70;;;;;;5015522;28;20056;-79
2022/07/20 02:34:32;;;;;;;5.40;2.70;;;23.40;88.70;;;;;;5015131;28;20033;-79
2022/07/20 02:36:58;;;;;;;4.63;3.10;;;23.30;88.60;;;;;;5015047;28;20033;-80
2022/07/20 02:39:24;;;;;;;4.15;3.03;;;23.30;88.60;;;;;;5015264;28;20049;-79
2022/07/20 02:41:49;;;;;;;9.85;3.47;;;23.30;88.80;;;;;;5015049;28;20055;-79
2022/07/20 02:44:15;;;;;;;6.93;2.80;;;23.20;88.50;;;;;;5015345;28;20047;-79
2022/07/20 02:46:41;;;;;;;4.30;3.10;;;23.20;88.40;;;;;;5014288;28;20049;-79
2022/07/20 02:49:07;;;;;;;4.30;2.70;;;23.20;88.70;;;;;;5014807;28;20085;-79
2022/07/20 02:51:33;;;;;;;5.03;2.80;;;23.20;88.40;;;;;;5014919;28;20060;-79
2022/07/20 02:53:59;;;;;;;8.52;3.05;;;23.20;88.60;;;;;;5014867;28;20107;-79
2022/07/20 02:56:25;;;;;;;4.90;2.75;;;23.10;88.90;;;;;;5015050;28;20116;-79
2022/07/20 02:58:50;;;;;;;4.57;2.95;;;23.20;88.50;;;;;;5014851;28;20049;-79
2022/07/20 03:01:16;;;;;;;4.45;2.65;;;23.00;88.40;;;;;;4998792;28;20711;-79
2022/07/20 03:03:42;;;;;;;6.72;2.80;;;23.00;88.30;;;;;;4998356;28;20076;-79
2022/07/20 03:06:09;;;;;;;6.25;2.85;;;23.00;88.60;;;;;;5014852;28;20033;-80
2022/07/20 03:08:34;;;;;;;;;;;22.90;88.30;;;;;;5015440;28;20065;-79
2022/07/20 03:11:00;;;;;;;6.30;2.75;;;23.00;88.30;;;;;;5014257;28;20007;-79
2022/07/20 03:13:26;;;;;;;9.80;2.85;;;22.90;88.10;;;;;;5014396;28;20405;-79
2022/07/20 03:15:52;;;;;;;7.38;3.33;;;22.90;88.00;;;;;;5014076;28;20492;-78
2022/07/20 03:18:18;;;;;;;;;;;23.00;87.90;;;;;;5015371;28;20044;-79
2022/07/20 03:20:44;;;;;;;5.70;3.03;;;22.90;88.30;;;;;;5014139;28;19916;-79
2022/07/20 03:23:09;;;;;;;5.78;2.70;;;22.90;87.90;;;;;;5014559;28;21722;-79
2022/07/20 03:25:35;;;;;;;5.10;2.53;;;22.90;87.90;;;;;;5014827;28;20045;-80
2022/07/20 03:28:01;;;;;;;4.93;2.65;;;22.90;88.00;;;;;;5014554;28;20103;-78
2022/07/20 03:30:27;;;;;;;5.68;2.97;;;22.90;87.90;;;;;;5014021;28;20077;-79
2022/07/20 03:32:54;;;;;;;7.82;2.95;;;22.80;87.70;;;;;;4998076;28;20135;-80
2022/07/20 03:35:20;;;;;;;4.13;2.90;;;22.80;87.70;;;;;;5014205;28;20053;-79
2022/07/20 03:37:46;;;;;;;;;;;22.80;87.60;;;;;;5014211;28;20063;-79
2022/07/20 03:40:12;;;;;;;6.75;2.80;;;22.80;88.30;;;;;;5014144;28;20354;-79
2022/07/20 03:42:37;;;;;;;;;;;22.70;87.70;;;;;;5014730;28;20037;-79
2022/07/20 03:45:03;;;;;;;6.20;2.72;;;22.70;88.00;;;;;;5013936;28;20380;-79
2022/07/20 03:47:29;;;;;;;;;;;22.70;88.00;;;;;;5013956;28;20045;-79
2022/07/20 03:49:55;;;;;;;7.45;3.13;;;22.60;88.50;;;;;;5013879;28;20308;-79
2022/07/20 03:52:21;;;;;;;5.22;3.00;;;22.60;88.10;;;;;;4981413;28;20727;-79
2022/07/20 03:54:47;;;;;;;6.53;2.88;;;22.70;88.20;;;;;;4996922;28;20091;-79
2022/07/20 03:57:13;;;;;;;5.45;2.97;;;22.60;88.00;;;;;;5013236;28;20044;-80
2022/07/20 03:59:39;;;;;;;6.50;2.60;;;22.60;88.20;;;;;;5013715;28;20033;-79
2022/07/20 04:02:05;;;;;;;7.38;3.00;;;22.60;88.30;;;;;;4997109;28;20068;-79
2022/07/20 04:04:31;;;;;;;8.60;3.20;;;22.60;88.20;;;;;;4997150;28;20385;-79
2022/07/20 04:06:57;;;;;;;5.28;2.85;;;22.60;88.20;;;;;;4996825;28;20130;-80
2022/07/20 04:12:09;;;;;;;7.53;2.50;;;22.60;88.40;;;;;;5028340;28;19924;-78
2022/07/20 04:14:35;;;;;;;8.65;3.08;;;22.50;88.50;;;;;;5012995;28;20175;-75
2022/07/20 04:17:02;;;;;;;7.25;2.95;;;22.50;88.60;;;;;;5030298;28;20116;-76
2022/07/20 04:19:27;;;;;;;5.35;2.80;;;22.60;88.60;;;;;;5030081;28;20508;-75
2022/07/20 04:21:55;;;;;;;5.25;2.90;;;22.60;88.80;;;;;;5012518;28;20073;-77
2022/07/20 04:24:21;;;;;;;6.72;2.72;;;22.50;88.80;;;;;;5010482;28;20080;-77
2022/07/20 04:26:47;;;;;;;;;;;22.60;88.70;;;;;;5013158;28;20067;-76
2022/07/20 04:29:12;;;;;;;5.40;2.67;;;22.60;88.80;;;;;;4996184;28;20173;-76
2022/07/20 04:31:38;;;;;;;4.00;2.88;;;22.60;88.70;;;;;;5012561;28;20053;-75
2022/07/20 04:34:04;;;;;;;5.97;2.70;;;22.60;89.30;;;;;;5012274;28;20048;-76
2022/07/20 04:36:29;;;;;;;6.70;3.05;;;22.60;88.80;;;;;;5030048;28;20068;-76
2022/07/20 04:38:55;;;;;;;6.50;3.08;;;22.60;88.60;;;;;;5012242;28;20049;-76
2022/07/20 04:41:20;;;;;;;7.45;3.08;;;22.60;88.70;;;;;;5012397;28;20126;-76
2022/07/20 04:43:46;;;;;;;7.28;3.03;;;22.70;88.60;;;;;;5010108;28;20048;-76
2022/07/20 04:46:12;;;;;;;4.18;2.70;;;22.70;88.70;;;;;;5011771;28;20449;-76
2022/07/20 04:48:37;;;;;;;4.28;2.75;;;22.70;88.70;;;;;;5012116;28;20387;-76
2022/07/20 04:51:03;;;;;;;4.00;2.60;;;22.70;88.90;;;;;;5011903;28;20052;-77
2022/07/20 04:53:29;;;;;;;4.50;2.58;;;22.70;88.90;;;;;;5012148;28;20456;-75
2022/07/20 04:55:54;;;;;;;5.80;3.05;;;22.70;89.10;;;;;;4995909;28;20039;-78
2022/07/20 04:58:20;;;;;;;5.57;2.90;;;22.70;89.10;;;;;;5012645;28;20076;-78
2022/07/20 05:00:46;;;;;;;4.55;2.78;;;22.80;89.40;;;;;;5012783;28;20046;-78
2022/07/20 05:03:11;;;;;;;3.83;2.70;;;22.70;89.30;;;;;;4995654;28;20512;-79
2022/07/20 05:05:37;;;;;;;4.43;2.97;;;22.70;89.30;;;;;;4995457;28;20444;-79
2022/07/20 05:08:03;;;;;;;5.93;2.90;;;22.80;89.60;;;;;;5012049;28;20485;-78
2022/07/20 05:10:29;;;;;;;3.75;2.95;;;22.80;89.60;;;;;;5017844;28;20037;-77
2022/07/20 05:12:54;;;;;;;4.88;2.92;;;22.90;89.80;;;;;;5018046;28;20037;-79
2022/07/20 05:15:23;;;;;;;5.00;2.92;;;22.80;89.60;;;;;;5017884;28;20056;-78
2022/07/20 05:17:49;;;;;;;4.72;2.85;;;22.90;89.60;;;;;;5002750;28;20033;-78
2022/07/20 05:20:15;;;;;;;3.72;2.85;;;22.90;89.60;;;;;;5002456;28;20611;-77
2022/07/20 05:22:41;;;;;;;6.00;3.22;;;23.00;89.20;;;;;;5019039;28;20120;-79
2022/07/20 05:25:07;;;;;;;5.25;2.85;;;23.10;88.90;;;;;;5035205;28;20095;-79
2022/07/20 05:27:32;;;;;;;;;;;23.20;88.30;;;;;;5019036;28;20053;-78
2022/07/20 05:29:58;;;;;;;11.23;3.00;;;23.30;88.20;;;;;;5018592;28;19916;-78
2022/07/20 05:32:24;;;;;;;4.65;3.10;;;23.40;88.10;;;;;;5002751;28;20047;-78
2022/07/20 05:34:49;;;;;;;5.15;3.22;;;23.50;88.00;;;;;;5002587;28;20122;-78
2022/07/20 05:37:15;;;;;;;3.75;2.85;;;23.60;87.60;;;;;;5018841;28;20033;-78
2022/07/20 05:39:40;;;;;;;4.88;3.03;;;23.70;87.20;;;;;;5019011;28;20073;-78
2022/07/20 05:42:06;;;;;;;6.35;3.00;;;23.90;87.20;;;;;;5002637;28;20048;-78
2022/07/20 05:44:32;;;;;;;7.80;3.13;;;24.10;87.10;;;;;;5018528;28;20056;-78
2022/07/20 05:46:57;;;;;;;7.18;3.33;;;24.20;87.10;;;;;;5019127;28;20037;-78
2022/07/20 05:49:23;;;;;;;4.20;2.88;;;24.40;86.80;;;;;;5018631;28;20057;-78
2022/07/20 05:51:49;;;;;;;6.38;3.00;;;24.50;86.70;;;;;;5018927;28;20466;-78
2022/07/20 05:54:14;;;;;;;7.25;3.28;;;24.60;86.40;;;;;;5001908;28;20057;-78
2022/07/20 05:56:40;;;;;;;4.40;2.90;;;24.80;86.40;;;;;;5002748;28;20042;-78
2022/07/20 05:59:06;;;;;;;4.80;3.13;;;24.90;86.50;;;;;;5018687;28;20124;-78
2022/07/20 06:01:31;;;;;;;4.75;2.90;;;25.10;86.30;;;;;;5019083;28;20045;-78
2022/07/20 06:03:57;;;;;;;7.15;3.47;;;25.40;86.00;;;;;;5018670;28;20033;-79
2022/07/20 06:06:23;;;;;;;;;;;26.00;85.60;;;;;;5018694;28;20489;-78
2022/07/20 06:08:48;;;;;;;5.97;3.10;;;26.60;84.10;;;;;;5018925;28;20007;-78
2022/07/20 06:11:14;;;;;;;;;;;27.00;84.10;;;;;;5018477;28;20049;-77
2022/07/20 06:13:39;;;;;;;6.80;3.15;;;27.40;83.50;;;;;;5018660;28;20337;-78
2022/07/20 06:16:05;;;;;;;;;;;27.60;83.30;;;;;;5018653;28;20394;-78
2022/07/20 06:18:31;;;;;;;7.55;3.35;;;27.90;82.30;;;;;;5018487;28;19940;-78
2022/07/20 06:20:56;;;;;;;6.13;3.10;;;28.20;83.30;;;;;;4999335;28;20041;-78
2022/07/20 06:23:22;;;;;;;7.40;3.15;;;28.50;83.40;;;;;;5032369;28;20034;-78
2022/07/20 06:25:48;;;;;;;5.90;3.00;;;28.60;82.30;;;;;;5015844;28;20041;-78
2022/07/20 06:28:13;;;;;;;6.38;3.40;;;28.80;83.00;;;;;;5014962;28;20045;-78
2022/07/20 06:30:39;;;;;;;6.25;3.17;;;28.80;83.10;;;;;;5015180;28;20041;-78
2022/07/20 06:33:05;;;;;;;6.60;3.17;;;28.90;83.10;;;;;;5014839;28;20048;-80
2022/07/20 06:35:30;;;;;;;5.82;3.25;;;28.90;83.10;;;;;;4997840;28;20132;-78
2022/07/20 06:37:57;;;;;;;8.00;3.40;;;29.10;83.30;;;;;;5014868;28;20387;-76
2022/07/20 06:40:23;;;;;;;5.00;2.85;;;29.30;82.90;;;;;;5017114;28;20049;-77
2022/07/20 06:42:48;;;;;;;9.82;3.10;;;29.50;83.20;;;;;;5006975;28;20474;-78
2022/07/20 06:45:14;;;;;;;8.93;3.30;;;29.50;82.90;;;;;;5020978;28;20033;-78
2022/07/20 06:47:40;;;;;;;5.47;3.30;;;29.50;83.60;;;;;;5007142;28;20095;-78
2022/07/20 06:50:06;;;;;;;6.07;3.00;;;29.60;84.40;;;;;;5022027;28;20067;-78
2022/07/20 06:52:33;;;;;;;6.22;3.22;;;29.70;84.50;;;;;;5016386;28;20545;-78
2022/07/20 06:54:58;;;;;;;4.90;3.10;;;29.80;83.80;;;;;;5014333;28;20041;-78
2022/07/20 06:57:24;;;;;;;8.43;3.33;;;30.00;81.10;;;;;;5013668;28;20312;-79
2022/07/20 06:59:50;;;;;;;7.60;3.50;;;30.00;81.00;;;;;;5014475;28;20033;-78
2022/07/20 07:02:16;;;;;;;6.20;3.53;;;30.00;81.70;;;;;;5013596;28;20040;-78
2022/07/20 07:04:42;;;;;;;8.45;3.60;;;30.10;81.40;;;;;;4982071;28;20490;-79
2022/07/20 07:07:08;;;;;;;6.88;3.58;;;30.10;82.30;;;;;;4997640;28;20040;-77
2022/07/20 07:09:34;;;;;;;6.88;3.90;;;30.20;80.90;;;;;;5014337;28;20040;-79
2022/07/20 07:12:00;;;;;;;4.63;3.58;;;30.30;81.30;;;;;;5014194;28;20048;-77
2022/07/20 07:14:25;;;;;;;9.13;3.90;;;30.30;80.20;;;;;;4997226;28;20115;-77
2022/07/20 07:16:54;;;;;;;7.80;3.67;;;30.40;80.20;;;;;;4997835;28;20049;-77
2022/07/20 07:19:20;;;;;;;8.00;4.13;;;30.40;81.00;;;;;;5013605;28;20051;-77
2022/07/20 07:21:46;;;;;;;8.02;3.90;;;30.50;81.30;;;;;;5014671;28;20120;-77
2022/07/20 07:24:12;;;;;;;5.60;4.03;;;30.50;81.60;;;;;;5013820;28;20045;-78
2022/07/20 07:26:37;;;;;;;6.53;4.00;;;30.60;81.30;;;;;;5018362;28;20045;-79
2022/07/20 07:29:03;;;;;;;7.70;4.20;;;30.70;82.00;;;;;;4998273;28;20041;-78
2022/07/20 07:31:29;;;;;;;5.63;3.97;;;30.70;81.30;;;;;;5013642;28;21011;-79
2022/07/20 07:33:54;;;;;;;9.57;4.40;;;30.80;80.70;;;;;;4997884;28;20505;-79
2022/07/20 07:36:22;;;;;;;6.20;4.20;;;30.90;81.70;;;;;;4997274;28;20377;-79
2022/07/20 07:38:47;;;;;;;7.47;4.53;;;30.80;82.00;;;;;;5014394;28;20041;-79
2022/07/20 07:41:13;;;;;;;6.40;5.15;;;30.90;82.20;;;;;;5013894;28;20064;-79
2022/07/20 07:43:39;;;;;;;9.43;5.32;;;31.30;82.20;;;;;;5015952;28;20037;-78
2022/07/20 07:46:05;;;;;;;7.47;5.28;;;31.40;81.50;;;;;;5017369;28;20041;-78
2022/07/20 07:48:31;;;;;;;9.00;5.38;;;31.40;82.10;;;;;;4998301;28;20062;-80
2022/07/20 07:50:57;;;;;;;10.70;5.10;;;31.60;82.10;;;;;;5011194;28;20033;-80
2022/07/20 07:53:22;;;;;;;9.43;5.10;;;31.60;82.70;;;;;;4982012;28;20491;-79
2022/07/20 07:55:48;;;;;;;10.68;5.43;;;31.70;83.30;;;;;;4994532;28;20038;-79
2022/07/20 07:58:14;;;;;;;13.20;5.93;;;31.70;83.60;;;;;;5011597;28;20475;-80
2022/07/20 08:00:40;;;;;;;10.23;5.70;;;31.80;83.50;;;;;;4994558;28;20053;-80
2022/07/20 08:03:06;;;;;;;11.90;6.35;;;31.80;84.20;;;;;;4994585;28;20065;-80
2022/07/20 08:05:32;;;;;;;9.63;6.53;;;31.70;84.30;;;;;;4993717;28;20080;-79
2022/07/20 08:08:04;;;;;;;9.90;6.32;;;32.20;83.90;;;;;;5010797;28;20100;-80
2022/07/20 08:10:30;;;;;;;10.18;6.57;;;32.30;84.00;;;;;;5010171;28;20104;-79
2022/07/20 08:12:55;;;;;;;13.73;7.32;;;32.10;84.70;;;;;;4977980;28;20049;-78
2022/07/20 08:15:21;;;;;;;15.10;6.50;;;32.00;85.60;;;;;;4993436;28;20107;-78
2022/07/20 08:17:47;;;;;;;11.35;7.93;;;32.10;85.70;;;;;;5010664;28;20121;-79
2022/07/20 08:20:13;;;;;;;10.77;7.80;;;32.40;86.10;;;;;;5010560;28;20034;-78
2022/07/20 08:22:39;;;;;;;11.20;7.53;;;32.50;85.60;;;;;;5010113;28;20134;-79
2022/07/20 08:25:05;;;;;;;12.93;7.63;;;32.50;85.00;;;;;;4993983;28;20127;-79
2022/07/20 08:27:31;;;;;;;14.35;8.25;;;32.30;86.20;;;;;;5014224;28;20042;-79
2022/07/20 08:30:00;;;;;;;13.75;8.60;;;32.60;86.00;;;;;;5010433;28;20464;-79
2022/07/20 08:32:26;;;;;;;13.38;9.50;;;32.70;86.10;;;;;;5009931;28;20056;-79
2022/07/20 08:34:52;;;;;;;15.77;8.63;;;32.70;87.10;;;;;;4993885;28;20410;-80
2022/07/20 08:37:18;;;;;;;12.10;9.10;;;32.90;88.30;;;;;;5009397;28;20124;-79
2022/07/20 08:39:44;;;;;;;16.67;9.35;;;32.90;87.40;;;;;;4993688;28;20141;-80
2022/07/20 08:42:11;;;;;;;17.33;10.52;;;33.20;88.60;;;;;;4993898;28;20033;-81
2022/07/20 08:44:42;;;;;;;14.63;9.90;;;33.30;87.10;;;;;;5009051;28;20041;-81
2022/07/20 08:47:11;;;;;;;19.15;10.90;;;33.20;88.60;;;;;;5010114;28;20103;-80
2022/07/20 08:49:47;;;;;;;18.58;11.27;;;33.10;87.90;;;;;;5009569;28;20120;-81
2022/07/20 08:52:13;;;;;;;17.33;12.02;;;33.40;87.70;;;;;;5010107;28;20121;-81
2022/07/20 08:54:39;;;;;;;18.27;11.77;;;33.50;87.90;;;;;;4992938;28;20045;-79
2022/07/20 08:57:09;;;;;;;17.33;12.88;;;33.60;87.90;;;;;;4994042;28;20084;-79
2022/07/20 08:59:35;;;;;;;17.88;13.48;;;33.80;88.30;;;;;;5009075;28;20030;-79
2022/07/20 09:02:03;;;;;;;21.02;14.23;;;33.90;88.50;;;;;;4993276;28;20540;-79
2022/07/20 09:04:29;;;;;;;21.35;14.65;;;33.90;88.50;;;;;;5008936;28;20141;-79
2022/07/20 09:06:55;;;;;;;19.38;13.77;;;33.90;88.10;;;;;;5009479;28;20121;-79
2022/07/20 09:09:22;;;;;;;19.15;14.20;;;34.00;88.60;;;;;;5009391;28;20053;-79
2022/07/20 09:11:49;;;;;;;18.95;14.15;;;34.10;89.00;;;;;;4993133;28;20077;-80
2022/07/20 09:14:48;;;;;;;18.25;15.43;;;34.10;88.90;;;;;;5009794;28;20821;-79
2022/07/20 09:17:21;;;;;;;21.73;14.95;;;34.10;88.90;;;;;;5016452;28;20050;-80
2022/07/20 09:19:59;;;;;;;23.88;15.82;;;34.30;88.40;;;;;;5007410;28;20092;-78
2022/07/20 09:22:41;;;;;;;25.15;15.45;;;34.30;88.00;;;;;;5023815;28;20081;-81
2022/07/20 09:25:13;;;;;;;20.23;15.93;;;34.30;88.70;;;;;;5008386;28;20136;-80
2022/07/20 09:27:39;;;;;;;21.30;15.52;;;34.20;87.20;;;;;;5023609;28;20077;-81
2022/07/20 09:30:14;;;;;;;21.65;16.42;;;33.70;88.40;;;;;;4993324;28;20060;-81
2022/07/20 09:33:02;;;;;;;28.20;16.67;;;34.00;89.80;;;;;;5009340;28;20435;-80
2022/07/20 09:35:33;;;;;;;20.77;16.58;;;34.00;88.30;;;;;;5006801;28;20038;-78
2022/07/20 09:38:02;;;;;;;25.23;17.58;;;33.80;88.00;;;;;;5008245;28;20135;-79
2022/07/20 09:40:37;;;;;;;22.38;16.50;;;34.00;87.90;;;;;;5017678;28;20044;-78
2022/07/20 09:43:03;;;;;;;18.97;15.60;;;34.00;88.20;;;;;;5010570;28;20494;-78
2022/07/20 09:45:29;;;;;;;25.17;16.05;;;34.20;88.60;;;;;;5007150;28;20042;-81
2022/07/20 09:48:01;;;;;;;21.83;16.52;;;34.20;87.40;;;;;;5008282;28;20062;-78
2022/07/20 09:50:32;;;;;;;20.17;16.15;;;34.20;87.80;;;;;;4992621;28;20092;-80
2022/07/20 09:52:58;;;;;;;22.40;16.27;;;34.30;87.50;;;;;;5015076;28;20038;-80
2022/07/20 09:55:25;;;;;;;20.60;15.70;;;34.30;88.30;;;;;;5014362;28;20108;-81
2022/07/20 09:57:52;;;;;;;20.92;14.85;;;34.40;87.50;;;;;;4996587;28;20042;-82
2022/07/20 10:00:19;;;;;;;23.83;15.27;;;34.40;87.90;;;;;;5014442;28;20081;-81
2022/07/20 10:02:49;;;;;;;20.63;15.82;;;34.70;87.60;;;;;;4983504;28;20117;-85
2022/07/20 10:05:18;;;;;;;22.95;15.73;;;34.80;86.80;;;;;;5000639;28;20041;-79
2022/07/20 10:07:45;;;;;;;20.95;16.23;;;34.70;85.90;;;;;;5012814;28;20062;-82
2022/07/20 10:10:11;;;;;;;16.73;14.35;;;34.80;85.70;;;;;;5013115;28;20037;-81
2022/07/20 10:12:38;;;;;;;20.83;14.75;;;34.90;84.20;;;;;;4996128;28;20137;-81
2022/07/20 10:15:17;;;;;;;16.92;13.98;;;34.70;83.90;;;;;;5013078;28;20061;-82
2022/07/20 10:17:44;;;;;;;18.33;13.63;;;34.60;84.00;;;;;;5012478;28;20065;-81
2022/07/20 10:20:31;;;;;;;19.42;13.73;;;34.80;84.40;;;;;;5013275;28;20042;-82
2022/07/20 10:23:15;;;;;;;15.60;12.63;;;35.00;83.30;;;;;;5012871;28;20049;-82
2022/07/20 10:25:46;;;;;;;17.98;13.27;;;34.80;82.20;;;;;;5007699;28;20041;-82
2022/07/20 10:28:38;;;;;;;15.48;12.23;;;34.90;82.60;;;;;;5013251;28;20053;-81
2022/07/20 10:31:08;;;;;;;16.58;13.45;;;34.90;83.40;;;;;;5011376;28;20056;-80
2022/07/20 10:33:36;;;;;;;16.50;12.93;;;35.10;82.90;;;;;;5020573;28;20045;-81
2022/07/20 10:39:18;;;;;;;18.48;12.00;;;34.90;83.10;;;;;;5026850;28;20038;-79
2022/07/20 10:42:22;;;;;;;12.85;10.40;;;35.20;83.40;;;;;;4995533;28;20108;-80
2022/07/20 10:44:49;;;;;;;21.65;10.18;;;35.40;81.50;;;;;;4993744;28;20042;-80
2022/07/20 10:47:44;;;;;;;11.50;9.98;;;35.70;80.20;;;;;;4996230;28;20128;-79
2022/07/20 10:50:18;;;;;;;13.85;10.10;;;35.50;80.90;;;;;;5015551;28;20695;-79
2022/07/20 10:52:47;;;;;;;12.75;9.25;;;34.90;81.40;;;;;;5015123;28;20057;-79
2022/07/20 10:55:35;;;;;;;11.55;8.98;;;34.30;81.80;;;;;;5010591;28;20095;-79
2022/07/20 10:58:09;;;;;;;13.13;9.05;;;34.30;82.80;;;;;;4999260;28;20068;-79
2022/07/20 11:00:40;;;;;;;13.13;9.40;;;34.30;82.60;;;;;;5019094;28;20034;-79
2022/07/20 11:03:25;;;;;;;13.32;8.98;;;34.50;82.20;;;;;;5019859;28;20409;-79
2022/07/20 11:06:07;;;;;;;11.00;9.48;;;34.40;82.60;;;;;;5016144;28;20059;-79
2022/07/20 11:08:38;;;;;;;12.43;8.70;;;34.50;82.10;;;;;;5022820;28;20113;-79
2022/07/20 11:11:04;;;;;;;13.02;8.43;;;34.30;82.30;;;;;;5021466;28;20115;-79
2022/07/20 11:13:31;;;;;;;12.77;8.45;;;34.60;82.10;;;;;;5001834;28;20056;-79
2022/07/20 11:15:59;;;;;;;10.63;8.57;;;34.60;82.70;;;;;;5021288;28;20046;-80
2022/07/20 11:18:28;;;;;;;13.82;8.40;;;34.50;82.90;;;;;;5016379;28;20052;-79
2022/07/20 11:20:59;;;;;;;11.52;8.30;;;34.50;82.20;;;;;;5014517;28;20034;-79
2022/07/20 11:23:27;;;;;;;10.18;7.78;;;35.00;83.40;;;;;;5014538;28;20108;-78
2022/07/20 11:25:59;;;;;;;10.45;7.80;;;35.40;82.90;;;;;;5014604;28;20045;-81
2022/07/20 11:28:27;;;;;;;9.90;7.90;;;35.90;81.20;;;;;;4998104;28;20129;-80
2022/07/20 11:30:55;;;;;;;13.82;8.13;;;36.00;80.20;;;;;;5010121;28;20505;-82
2022/07/20 11:33:31;;;;;;;12.02;7.97;;;35.80;80.30;;;;;;5014867;28;20466;-81
2022/07/20 11:36:01;;;;;;;12.13;7.95;;;35.70;81.40;;;;;;4999411;28;20477;-81
2022/07/20 11:38:34;;;;;;;9.73;7.57;;;35.90;81.80;;;;;;5014723;28;20498;-81
2022/07/20 11:41:02;;;;;;;12.15;8.20;;;36.20;81.80;;;;;;4998343;28;20037;-82
2022/07/20 11:43:28;;;;;;;12.57;8.82;;;36.20;81.10;;;;;;4996173;28;20095;-82
2022/07/20 11:45:54;;;;;;;9.98;8.02;;;36.30;80.50;;;;;;4998304;28;20048;-81
2022/07/20 11:48:23;;;;;;;14.95;8.20;;;36.50;80.90;;;;;;5003945;28;20104;-81
2022/07/20 11:50:48;;;;;;;11.40;8.23;;;36.40;79.50;;;;;;4989639;28;20142;-81
2022/07/20 11:53:26;;;;;;;11.38;7.97;;;36.20;79.90;;;;;;4992666;28;20117;-82
2022/07/20 11:55:52;;;;;;;12.70;8.60;;;36.50;79.60;;;;;;4991283;28;20045;-81
2022/07/20 11:58:28;;;;;;;12.80;8.25;;;36.70;79.60;;;;;;4975907;28;20073;-81
2022/07/20 12:00:55;;;;;;;10.27;7.85;;;36.30;80.00;;;;;;4991498;28;20446;-81
2022/07/20 12:03:28;;;;;;;10.95;7.22;;;36.00;80.90;;;;;;4991750;28;20394;-80
2022/07/20 12:05:55;;;;;;;9.18;6.57;;;36.20;80.10;;;;;;4990864;28;20100;-80
2022/07/20 12:08:22;;;;;;;9.43;6.63;;;36.30;79.80;;;;;;4975172;28;20467;-80
2022/07/20 12:10:48;;;;;;;9.02;6.55;;;36.40;80.50;;;;;;4990881;28;20082;-79
2022/07/20 12:13:14;;;;;;;10.18;6.55;;;36.60;79.10;;;;;;4975063;28;20097;-79
2022/07/20 12:15:50;;;;;;;10.45;6.60;;;36.40;79.70;;;;;;4990807;28;20041;-81
2022/07/20 12:18:34;;;;;;;10.23;5.75;;;36.40;79.40;;;;;;4996947;28;20042;-81
2022/07/20 12:21:01;;;;;;;7.70;5.68;;;36.40;79.30;;;;;;4990226;28;20092;-80
2022/07/20 12:23:27;;;;;;;9.07;6.72;;;36.40;79.00;;;;;;4988920;28;20042;-80
2022/07/20 12:25:53;;;;;;;10.80;6.32;;;36.30;78.50;;;;;;4990268;28;20049;-82
2022/07/20 12:28:33;;;;;;;9.00;5.93;;;36.30;78.80;;;;;;4989423;28;20042;-80
2022/07/20 12:31:21;;;;;;;7.93;6.18;;;36.20;78.00;;;;;;4988942;28;20117;-81
2022/07/20 12:34:00;;;;;;;10.38;6.22;;;36.10;77.40;;;;;;4989390;28;20072;-81
2022/07/20 12:36:41;;;;;;;9.30;6.60;;;36.20;77.20;;;;;;4988921;28;20046;-81
2022/07/20 12:39:12;;;;;;;10.25;6.38;;;36.30;77.00;;;;;;4987973;28;20104;-81
2022/07/20 12:41:39;;;;;;;11.25;6.65;;;36.40;77.50;;;;;;4972873;28;20096;-82
2022/07/20 12:44:29;;;;;;;8.40;7.25;;;36.00;77.70;;;;;;4982252;28;20065;-82
2022/07/20 12:46:56;;;;;;;10.35;6.90;;;36.20;78.70;;;;;;4989058;28;20085;-82
2022/07/20 12:49:26;;;;;;;10.57;6.78;;;36.10;78.90;;;;;;4990381;28;20050;-82
2022/07/20 12:51:52;;;;;;;13.52;7.10;;;35.90;79.30;;;;;;4990176;28;20103;-81
2022/07/20 12:54:19;;;;;;;10.00;7.65;;;36.30;79.80;;;;;;4990318;28;20044;-81
2022/07/20 12:56:45;;;;;;;9.77;7.40;;;36.50;78.40;;;;;;4990132;28;20046;-80
2022/07/20 12:59:12;;;;;;;12.55;8.05;;;36.60;78.70;;;;;;4974272;28;20569;-80